createdAt,value
2019-01-11T00:01:15.659Z,101374.62
2019-01-11T00:04:03.160Z,101371.39
2019-01-11T00:06:31.535Z,101369.41
2019-01-11T00:08:59.918Z,101366.31
2019-01-11T00:11:47.639Z,101368.39
2019-01-11T00:14:35.307Z,101361.70
2019-01-11T00:17:03.691Z,101360.02
2019-01-11T00:19:51.188Z,101360.10
2019-01-11T00:22:38.694Z,101356.00
2019-01-11T00:25:46.981Z,101355.14
2019-01-11T00:28:34.483Z,101347.97
2019-01-11T00:31:43.013Z,101345.49
2019-01-11T00:34:11.402Z,101342.28
2019-01-11T00:36:39.784Z,101332.72
2019-01-11T00:39:48.093Z,101331.94
2019-01-11T00:42:16.474Z,101323.97
2019-01-11T00:44:44.866Z,101325.24
2019-01-11T00:50:47.363Z,101317.05
2019-01-11T00:55:50.190Z,101321.11
2019-01-11T00:58:37.692Z,101309.95
2019-01-11T01:01:25.412Z,101301.15
2019-01-11T01:04:13.097Z,101301.15
2019-01-11T01:07:00.587Z,101300.31
2019-01-11T01:09:28.974Z,101290.28
2019-01-11T01:12:16.601Z,101286.48
2019-01-11T01:14:45.002Z,101291.59
2019-01-11T01:20:20.171Z,101280.69
2019-01-11T01:22:48.548Z,101280.34
2019-01-11T01:28:11.384Z,101280.28
2019-01-11T01:30:39.772Z,101281.89
2019-01-11T01:33:27.396Z,101272.52
2019-01-11T01:35:55.783Z,101274.72
2019-01-11T01:38:43.422Z,101269.17
2019-01-11T01:43:59.252Z,101269.30
2019-01-11T01:46:27.970Z,101265.91
2019-01-11T01:48:56.356Z,101269.17
2019-01-11T01:51:43.981Z,101270.32
2019-01-11T01:54:12.387Z,101273.83
2019-01-11T01:57:00.021Z,101266.55
2019-01-11T01:59:28.408Z,101261.41
2019-01-11T02:01:57.047Z,101259.12
2019-01-11T02:04:44.790Z,101253.69
2019-01-11T02:10:19.868Z,101256.12
2019-01-11T02:12:48.250Z,101257.27
2019-01-11T02:15:16.628Z,101253.67
2019-01-11T02:20:32.456Z,101245.23
2019-01-11T02:23:00.835Z,101242.55
2019-01-11T02:25:29.242Z,101238.11
2019-01-11T02:27:57.629Z,101239.02
2019-01-11T02:30:26.018Z,101237.33
2019-01-11T02:32:54.398Z,101240.02
2019-01-11T02:35:22.786Z,101229.86
2019-01-11T02:37:51.165Z,101232.52
2019-01-11T02:40:19.624Z,101227.11
2019-01-11T02:42:48.027Z,101220.55
2019-01-11T02:45:18.643Z,101220.55
2019-01-11T02:47:47.019Z,101210.20
2019-01-11T02:50:15.949Z,101206.11
2019-01-11T02:52:44.607Z,101211.47
2019-01-11T02:55:13.334Z,101213.70
2019-01-11T02:57:41.708Z,101209.38
2019-01-11T03:00:18.323Z,101208.23
2019-01-11T03:02:46.701Z,101201.47
2019-01-11T03:05:15.328Z,101201.63
2019-01-11T03:07:44.255Z,101198.59
2019-01-11T03:10:17.814Z,101191.80
2019-01-11T03:12:46.263Z,101194.27
2019-01-11T03:15:16.191Z,101188.69
2019-01-11T03:17:44.639Z,101188.48
2019-01-11T03:20:14.962Z,101188.30
2019-01-11T03:22:43.342Z,101184.29
2019-01-11T03:25:13.921Z,101175.19
2019-01-11T03:27:42.479Z,101167.91
2019-01-11T03:30:18.800Z,101162.77
2019-01-11T03:32:47.267Z,101162.94
2019-01-11T03:35:16.517Z,101160.16
2019-01-11T03:37:46.243Z,101164.73
2019-01-11T03:40:17.375Z,101152.77
2019-01-11T03:42:45.767Z,101141.45
2019-01-11T03:45:16.687Z,101137.27
2019-01-11T03:47:45.097Z,101135.41
2019-01-11T03:50:15.711Z,101138.55
2019-01-11T03:52:44.114Z,101147.98
2019-01-11T03:55:14.520Z,101157.84
2019-01-11T03:57:43.000Z,101147.17
2019-01-11T04:00:14.219Z,101142.33
2019-01-11T04:02:42.620Z,101147.23
2019-01-11T04:05:11.242Z,101139.68
2019-01-11T04:07:39.628Z,101134.61
2019-01-11T04:10:11.056Z,101143.91
2019-01-11T04:12:39.443Z,101134.12
2019-01-11T04:15:10.572Z,101128.41
2019-01-11T04:17:38.951Z,101124.95
2019-01-11T04:20:10.383Z,101117.89
2019-01-11T04:22:39.840Z,101128.31
2019-01-11T04:25:09.499Z,101128.70
2019-01-11T04:27:37.887Z,101133.00
2019-01-11T04:30:09.318Z,101128.33
2019-01-11T04:32:37.706Z,101119.15
2019-01-11T04:35:06.158Z,101123.44
2019-01-11T04:37:34.545Z,101113.50
2019-01-11T04:40:03.188Z,101109.71
2019-01-11T04:42:31.579Z,101114.25
2019-01-11T04:44:59.953Z,101111.08
2019-01-11T04:47:28.335Z,101106.52
2019-01-11T04:49:56.711Z,101096.95
2019-01-11T04:52:25.106Z,101091.89
2019-01-11T04:54:53.489Z,101089.36
2019-01-11T04:57:21.875Z,101091.79
2019-01-11T04:59:50.256Z,101094.23
2019-01-11T05:02:18.656Z,101087.82
2019-01-11T05:04:47.153Z,101084.52
2019-01-11T05:07:15.541Z,101080.80
2019-01-11T05:09:43.914Z,101068.01
2019-01-11T05:12:12.305Z,101069.36
2019-01-11T05:14:40.680Z,101059.80
2019-01-11T05:17:09.083Z,101072.20
2019-01-11T05:19:37.455Z,101068.44
2019-01-11T05:22:05.845Z,101071.47
2019-01-11T05:24:34.226Z,101066.70
2019-01-11T05:27:02.976Z,101055.45
2019-01-11T05:29:31.370Z,101048.65
2019-01-11T05:31:59.752Z,101048.65
2019-01-11T05:34:28.148Z,101048.09
2019-01-11T05:36:56.529Z,101050.08
2019-01-11T05:39:24.937Z,101054.16
2019-01-11T05:41:53.334Z,101043.53
2019-01-11T05:44:21.719Z,101051.20
2019-01-11T05:46:50.101Z,101041.69
2019-01-11T05:49:18.491Z,101043.91
2019-01-11T05:51:46.874Z,101047.04
2019-01-11T05:54:15.266Z,101043.20
2019-01-11T05:56:43.656Z,101054.09
2019-01-11T05:59:12.053Z,101045.06
2019-01-11T06:01:40.433Z,101044.88
2019-01-11T06:04:10.470Z,101041.17
2019-01-11T06:06:56.693Z,101037.50
2019-01-11T06:09:25.160Z,101048.77
2019-01-11T06:11:53.543Z,101045.84
2019-01-11T06:14:21.945Z,101042.56
2019-01-11T06:16:50.329Z,101033.17
2019-01-11T06:19:18.720Z,101040.20
2019-01-11T06:21:47.100Z,101034.81
2019-01-11T06:24:18.472Z,101029.14
2019-01-11T06:26:47.094Z,101032.39
2019-01-11T06:29:15.485Z,101026.34
2019-01-11T06:31:43.865Z,101024.28
2019-01-11T06:34:12.276Z,101030.56
2019-01-11T06:36:40.657Z,101021.23
2019-01-11T06:39:09.049Z,101020.91
2019-01-11T06:41:39.077Z,101014.31
2019-01-11T06:44:07.485Z,101019.17
2019-01-11T06:46:36.265Z,101017.23
2019-01-11T06:49:05.410Z,101018.80
2019-01-11T06:51:34.124Z,101020.54
2019-01-11T06:54:02.533Z,101016.41
2019-01-11T06:56:30.923Z,101017.59
2019-01-11T06:58:59.309Z,101023.08
2019-01-11T07:01:27.703Z,101018.46
2019-01-11T07:03:56.089Z,101018.77
2019-01-11T07:06:24.483Z,101016.89
2019-01-11T07:08:52.877Z,101016.43
2019-01-11T07:11:21.270Z,101018.95
2019-01-11T07:13:49.650Z,101003.23
2019-01-11T07:16:18.043Z,100997.06
2019-01-11T07:18:46.426Z,101001.38
2019-01-11T07:21:14.821Z,101003.14
2019-01-11T07:23:43.207Z,101001.97
2019-01-11T07:26:11.597Z,101008.27
2019-01-11T07:28:39.973Z,101006.60
2019-01-11T07:31:09.035Z,100999.84
2019-01-11T07:33:37.658Z,101000.13
2019-01-11T07:36:07.858Z,101005.70
2019-01-11T07:38:36.310Z,101001.78
2019-01-11T07:41:04.701Z,101008.05
2019-01-11T07:43:33.089Z,101008.92
2019-01-11T07:46:02.049Z,101005.30
2019-01-11T07:48:30.428Z,100997.58
2019-01-11T07:50:58.821Z,100998.23
2019-01-11T07:53:27.210Z,100988.52
2019-01-11T07:55:55.764Z,100983.53
2019-01-11T07:58:24.145Z,100980.64
2019-01-11T08:00:52.538Z,100980.16
2019-01-11T08:03:21.009Z,100979.55
2019-01-11T08:05:49.497Z,100981.42
2019-01-11T08:08:17.888Z,100979.77
2019-01-11T08:10:46.281Z,100975.72
2019-01-11T08:13:14.667Z,100976.33
2019-01-11T08:15:43.057Z,100977.03
2019-01-11T08:18:11.437Z,100973.31
2019-01-11T08:20:39.827Z,100969.64
2019-01-11T08:23:08.208Z,100962.64
2019-01-11T08:25:36.594Z,100967.02
2019-01-11T08:28:24.302Z,100967.34
2019-01-11T08:31:12.029Z,100967.38
2019-01-11T08:33:59.528Z,100973.07
2019-01-11T08:36:27.931Z,100972.81
2019-01-11T08:41:45.379Z,100972.72
2019-01-11T08:44:13.760Z,100972.02
2019-01-11T08:46:42.157Z,100968.69
2019-01-11T08:49:29.878Z,100977.49
2019-01-11T08:51:58.268Z,100973.22
2019-01-11T08:54:26.659Z,100970.39
2019-01-11T08:56:55.053Z,100973.86
2019-01-11T08:59:42.544Z,100968.69
2019-01-11T09:02:30.274Z,100965.34
2019-01-11T09:04:58.650Z,100970.58
2019-01-11T09:07:27.045Z,100969.78
2019-01-11T09:09:55.418Z,100963.58
2019-01-11T09:12:23.808Z,100963.00
2019-01-11T09:15:11.501Z,100961.63
2019-01-11T09:17:59.007Z,100962.71
2019-01-11T09:20:46.498Z,100963.52
2019-01-11T09:23:14.896Z,100973.73
2019-01-11T09:25:43.282Z,100966.56
2019-01-11T09:28:30.920Z,100964.86
2019-01-11T09:30:59.301Z,100963.25
2019-01-11T09:33:27.693Z,100963.21
2019-01-11T09:35:56.076Z,100962.98
2019-01-11T09:38:43.582Z,100958.91
2019-01-11T09:44:18.821Z,100961.05
2019-01-11T09:47:06.685Z,100949.71
2019-01-11T09:49:35.077Z,100944.52
2019-01-11T09:54:57.607Z,100938.34
2019-01-11T09:57:26.025Z,100943.91
2019-01-11T09:59:54.529Z,100943.17
2019-01-11T10:05:15.612Z,100937.06
2019-01-11T10:10:37.152Z,100925.73
2019-01-11T10:13:24.790Z,100923.38
2019-01-11T10:16:12.653Z,100918.96
2019-01-11T10:19:00.157Z,100925.09
2019-01-11T10:21:28.540Z,100910.36
2019-01-11T10:26:30.591Z,100905.86
2019-01-11T10:29:18.229Z,100904.11
2019-01-11T10:34:53.181Z,100896.72
2019-01-11T10:37:21.558Z,100890.20
2019-01-11T10:39:49.949Z,100881.12
2019-01-11T10:42:18.324Z,100876.25
2019-01-11T10:44:46.705Z,100872.59
2019-01-11T10:47:15.082Z,100876.72
2019-01-11T10:50:02.716Z,100869.17
2019-01-11T10:52:31.098Z,100868.90
2019-01-11T10:55:18.602Z,100866.49
2019-01-11T10:58:26.909Z,100867.94
2019-01-11T11:01:14.543Z,100862.80
2019-01-11T11:04:02.047Z,100861.57
2019-01-11T11:09:17.908Z,100850.41
2019-01-11T11:12:05.512Z,100852.48
2019-01-11T11:17:07.829Z,100845.07
2019-01-11T11:19:36.210Z,100837.66
2019-01-11T11:24:52.030Z,100826.31
2019-01-11T11:27:39.553Z,100833.91
2019-01-11T11:30:51.037Z,100838.36
2019-01-11T11:36:45.301Z,100835.62
2019-01-11T11:39:13.742Z,100836.92
2019-01-11T11:42:01.418Z,100829.81
2019-01-11T11:44:29.823Z,100834.08
2019-01-11T11:47:17.452Z,100824.64
2019-01-11T11:49:45.840Z,100822.02
2019-01-11T11:52:54.127Z,100819.92
2019-01-11T11:55:22.514Z,100821.84
2019-01-11T12:00:58.960Z,100809.84
2019-01-11T12:04:07.256Z,100816.86
2019-01-11T12:06:35.636Z,100816.17
2019-01-11T12:09:44.191Z,100817.02
2019-01-11T12:12:12.561Z,100812.01
2019-01-11T12:14:40.933Z,100806.84
2019-01-11T12:17:28.431Z,100803.33
2019-01-11T12:19:57.200Z,100800.64
2019-01-11T12:22:26.924Z,100802.48
2019-01-11T12:25:14.787Z,100795.09
2019-01-11T12:27:43.164Z,100796.59
2019-01-11T12:30:51.478Z,100791.87
2019-01-11T12:33:38.962Z,100785.31
2019-01-11T12:36:26.589Z,100794.38
2019-01-11T12:38:54.961Z,100792.61
2019-01-11T12:41:42.594Z,100783.09
2019-01-11T12:44:10.963Z,100783.02
2019-01-11T12:46:58.463Z,100780.67
2019-01-11T12:52:14.285Z,100769.30
2019-01-11T12:55:01.917Z,100767.93
2019-01-11T12:57:49.544Z,100765.98
2019-01-11T13:00:57.839Z,100768.75
2019-01-11T13:03:26.226Z,100761.34
2019-01-11T13:06:13.867Z,100762.72
2019-01-11T13:08:42.232Z,100761.27
2019-01-11T13:11:29.955Z,100758.77
2019-01-11T13:14:17.576Z,100750.66
2019-01-11T13:16:45.971Z,100758.56
2019-01-11T13:22:01.786Z,100753.48
2019-01-11T13:27:17.601Z,100749.93
2019-01-11T13:35:47.151Z,100749.95
2019-01-11T13:38:34.803Z,100744.74
2019-01-11T13:43:57.416Z,100729.80
2019-01-11T13:46:25.796Z,100741.05
2019-01-11T13:51:41.629Z,100732.55
2019-01-11T13:54:29.118Z,100734.53
2019-01-11T13:56:57.508Z,100731.69
2019-01-11T13:59:45.136Z,100730.13
2019-01-11T14:02:13.520Z,100729.76
2019-01-11T14:05:20.261Z,100725.79
2019-01-11T14:07:48.645Z,100733.84
2019-01-11T14:13:23.574Z,100740.12
2019-01-11T14:16:11.193Z,100736.62
2019-01-11T14:18:39.575Z,100733.84
2019-01-11T14:21:27.135Z,100734.70
2019-01-11T14:24:14.762Z,100731.98
2019-01-11T14:26:50.577Z,100733.70
2019-01-11T14:29:38.202Z,100730.84
2019-01-11T14:32:25.934Z,100724.17
2019-01-11T14:34:54.300Z,100729.74
2019-01-11T14:37:22.675Z,100740.95
2019-01-11T14:42:25.045Z,100735.53
2019-01-11T14:44:53.428Z,100741.55
2019-01-11T14:47:41.053Z,100742.64
2019-01-11T14:50:49.351Z,100743.36
2019-01-11T14:53:17.735Z,100745.84
2019-01-11T14:55:46.105Z,100738.61
2019-01-11T14:58:14.489Z,100741.48
2019-01-11T15:00:42.866Z,100739.23
2019-01-11T15:03:30.594Z,100735.66
2019-01-11T15:05:58.970Z,100736.07
2019-01-11T15:08:27.391Z,100732.88
2019-01-11T15:10:55.764Z,100733.09
2019-01-11T15:15:58.148Z,100737.88
2019-01-11T15:18:26.533Z,100738.92
2019-01-11T15:20:54.922Z,100747.61
2019-01-11T15:23:42.542Z,100736.66
2019-01-11T15:26:10.930Z,100737.25
2019-01-11T15:28:58.559Z,100754.50
2019-01-11T15:31:26.979Z,100743.72
2019-01-11T15:34:14.602Z,100734.09
2019-01-11T15:39:30.418Z,100741.20
2019-01-11T15:41:58.790Z,100750.02
2019-01-11T15:44:27.180Z,100748.08
2019-01-11T15:46:55.541Z,100750.96
2019-01-11T15:49:23.940Z,100748.02
2019-01-11T15:51:52.316Z,100747.70
2019-01-11T15:59:48.412Z,100756.80
2019-01-11T16:02:16.789Z,100756.89
2019-01-11T16:04:45.197Z,100760.48
2019-01-11T16:10:01.015Z,100764.41
2019-01-11T16:13:09.303Z,100761.69
2019-01-11T16:16:17.685Z,100754.69
2019-01-11T16:19:05.307Z,100754.59
2019-01-11T16:21:53.033Z,100750.75
2019-01-11T16:24:21.423Z,100753.75
2019-01-11T16:27:09.050Z,100761.59
2019-01-11T16:29:56.785Z,100757.17
2019-01-11T16:32:44.410Z,100752.81
2019-01-11T16:35:12.793Z,100753.59
2019-01-11T16:38:00.419Z,100754.91
2019-01-11T16:40:28.814Z,100752.02
2019-01-11T16:43:37.129Z,100759.80
2019-01-11T16:46:24.776Z,100749.86
2019-01-11T16:48:53.153Z,100756.63
2019-01-11T16:51:21.583Z,100773.80
2019-01-11T16:53:49.914Z,100765.47
2019-01-11T16:56:37.547Z,100761.59
2019-01-11T16:59:25.250Z,100771.78
2019-01-11T17:01:53.629Z,100770.74
2019-01-11T17:09:43.073Z,100769.77
2019-01-11T17:12:30.701Z,100777.55
2019-01-11T17:15:18.198Z,100779.22
2019-01-11T17:18:05.686Z,100787.62
2019-01-11T17:20:34.074Z,100795.42
2019-01-11T17:25:49.902Z,100787.30
2019-01-11T17:28:18.278Z,100791.10
2019-01-11T17:30:46.663Z,100791.10
2019-01-11T17:33:15.044Z,100789.09
2019-01-11T17:36:02.674Z,100789.61
2019-01-11T17:38:50.162Z,100793.05
2019-01-11T17:41:18.548Z,100798.19
2019-01-11T17:43:46.922Z,100792.41
2019-01-11T17:46:34.424Z,100794.23
2019-01-11T17:52:29.986Z,100804.97
2019-01-11T17:55:17.478Z,100807.91
2019-01-11T17:57:45.859Z,100809.00
2019-01-11T18:00:33.578Z,100806.60
2019-01-11T18:03:01.961Z,100808.06
2019-01-11T18:05:30.334Z,100798.08
2019-01-11T18:08:17.968Z,100805.95
2019-01-11T18:11:05.492Z,100810.16
2019-01-11T18:13:33.868Z,100801.03
2019-01-11T18:16:21.555Z,100793.90
2019-01-11T18:18:49.906Z,100793.95
2019-01-11T18:21:37.635Z,100793.55
2019-01-11T18:24:25.269Z,100801.67
2019-01-11T18:27:12.769Z,100794.78
2019-01-11T18:30:00.388Z,100800.67
2019-01-11T18:40:32.768Z,100798.05
2019-01-11T18:45:35.062Z,100798.88
2019-01-11T18:50:37.446Z,100803.70
2019-01-11T18:53:05.830Z,100806.30
2019-01-11T18:55:34.211Z,100797.90
2019-01-11T18:58:02.591Z,100809.98
2019-01-11T19:00:30.962Z,100806.95
2019-01-11T19:02:59.351Z,100812.84
2019-01-11T19:05:27.766Z,100803.89
2019-01-11T19:07:56.146Z,100805.08
2019-01-11T19:10:24.626Z,100808.82
2019-01-11T19:12:53.016Z,100811.70
2019-01-11T19:15:26.649Z,100804.50
2019-01-11T19:17:55.027Z,100804.31
2019-01-11T19:20:25.644Z,100816.81
2019-01-11T19:22:54.201Z,100813.52
2019-01-11T19:25:22.739Z,100813.14
2019-01-11T19:27:51.194Z,100818.89
2019-01-11T19:30:21.710Z,100813.08
2019-01-11T19:32:50.178Z,100815.41
2019-01-11T19:35:18.555Z,100816.32
2019-01-11T19:37:46.934Z,100820.73
2019-01-11T19:40:16.453Z,100819.41
2019-01-11T19:42:44.844Z,100811.64
2019-01-11T19:45:15.070Z,100813.02
2019-01-11T19:47:43.440Z,100813.14
2019-01-11T19:50:14.362Z,100816.29
2019-01-11T19:52:43.225Z,100817.42
2019-01-11T19:55:12.168Z,100811.64
2019-01-11T19:57:40.535Z,100814.48
2019-01-11T20:00:17.788Z,100819.97
2019-01-11T20:02:46.605Z,100827.88
2019-01-11T20:05:15.922Z,100826.94
2019-01-11T20:07:44.468Z,100820.96
2019-01-11T20:10:15.945Z,100813.64
2019-01-11T20:12:44.317Z,100811.03
2019-01-11T20:15:13.120Z,100824.63
2019-01-11T20:17:41.492Z,100825.10
2019-01-11T20:20:12.611Z,100818.73
2019-01-11T20:22:40.986Z,100824.76
2019-01-11T20:25:15.028Z,100825.42
2019-01-11T20:27:43.472Z,100827.61
2019-01-11T20:30:17.754Z,100824.51
2019-01-11T20:32:46.180Z,100829.19
2019-01-11T20:35:14.677Z,100825.84
2019-01-11T20:37:43.314Z,100833.52
2019-01-11T20:40:14.139Z,100837.46
2019-01-11T20:42:42.572Z,100837.73
2019-01-11T20:45:13.638Z,100836.86
2019-01-11T20:47:42.011Z,100839.30
2019-01-11T20:50:13.140Z,100843.49
2019-01-11T20:52:41.522Z,100843.23
2019-01-11T20:55:10.871Z,100849.14
2019-01-11T20:57:39.487Z,100844.66
2019-01-11T21:00:11.338Z,100848.44
2019-01-11T21:02:39.716Z,100850.69
2019-01-11T21:05:08.534Z,100857.78
2019-01-11T21:07:36.906Z,100859.70
2019-01-11T21:10:08.227Z,100855.21
2019-01-11T21:12:36.602Z,100861.40
2019-01-11T21:15:11.119Z,100860.24
2019-01-11T21:17:39.500Z,100860.91
2019-01-11T21:20:10.924Z,100858.26
2019-01-11T21:22:39.367Z,100871.16
2019-01-11T21:25:10.792Z,100864.66
2019-01-11T21:27:39.166Z,100860.67
2019-01-11T21:30:16.376Z,100863.95
2019-01-11T21:32:44.752Z,100865.28
2019-01-11T21:35:13.405Z,100861.98
2019-01-11T21:37:41.780Z,100869.44
2019-01-11T21:40:13.006Z,100867.87
2019-01-11T21:42:41.382Z,100864.80
2019-01-11T21:45:11.219Z,100867.28
2019-01-11T21:47:39.728Z,100869.20
2019-01-11T21:50:17.360Z,100868.71
2019-01-11T21:52:45.800Z,100869.68
2019-01-11T21:55:14.921Z,100863.11
2019-01-11T21:57:44.244Z,100868.09
2019-01-11T22:00:19.086Z,100872.22
2019-01-11T22:02:47.477Z,100868.42
2019-01-11T22:05:16.014Z,100871.69
2019-01-11T22:07:44.393Z,100869.97
2019-01-11T22:10:15.111Z,100873.09
2019-01-11T22:12:43.490Z,100871.52
2019-01-11T22:15:14.984Z,100876.12
2019-01-11T22:17:43.367Z,100876.75
2019-01-11T22:20:14.405Z,100871.98
2019-01-11T22:22:42.766Z,100876.08
2019-01-11T22:25:12.877Z,100874.11
2019-01-11T22:27:41.265Z,100876.42
2019-01-11T22:30:12.650Z,100874.25
2019-01-11T22:32:41.037Z,100872.51
2019-01-11T22:35:09.408Z,100879.41
2019-01-11T22:37:37.791Z,100878.13
2019-01-11T22:40:09.219Z,100876.54
2019-01-11T22:42:37.603Z,100878.64
2019-01-11T22:45:09.283Z,100879.95
2019-01-11T22:47:37.688Z,100881.03
2019-01-11T22:50:08.703Z,100874.29
2019-01-11T22:52:37.090Z,100868.99
2019-01-11T22:55:07.705Z,100871.48
2019-01-11T22:57:36.086Z,100877.63
2019-01-11T23:00:07.544Z,100875.11
2019-01-11T23:02:35.929Z,100873.67
2019-01-11T23:05:06.340Z,100877.27
2019-01-11T23:07:34.723Z,100869.73
2019-01-11T23:10:04.978Z,100873.56
2019-01-11T23:12:39.258Z,100864.31
2019-01-11T23:15:10.696Z,100864.88
2019-01-11T23:17:42.131Z,100861.34
2019-01-11T23:20:12.951Z,100859.04
2019-01-11T23:22:41.336Z,100860.56
2019-01-11T23:25:09.801Z,100864.13
2019-01-11T23:27:38.193Z,100865.30
2019-01-11T23:30:09.705Z,100870.94
2019-01-11T23:32:38.086Z,100872.19
2019-01-11T23:35:06.630Z,100864.33
2019-01-11T23:37:35.015Z,100862.75
2019-01-11T23:40:04.362Z,100861.98
2019-01-11T23:42:32.742Z,100863.30
2019-01-11T23:45:01.118Z,100866.33
2019-01-11T23:47:29.571Z,100865.95
2019-01-11T23:49:58.010Z,100869.44
2019-01-11T23:52:26.394Z,100866.48
2019-01-11T23:54:54.774Z,100868.69
2019-01-11T23:57:23.220Z,100868.81
2019-01-11T23:59:51.647Z,100864.97
